Terminal Aerodrome Forecast
Issued by NWS

Home | Current Version | Previous Version | Text Only | Print | Product List | Glossary On
Versions: 1 2 3 4 5 6 7 8 9 10 11 12
000
FTUS44 KLIX 231730
TAFHUM
TAF
KHUM 231730Z 2318/2418 09008KT P6SM SCT027
     FM240100 00000KT P6SM FEW045 FEW250
      TEMPO 2409/2413 4SM BR
     FM241400 04009KT P6SM SCT030=

USA.gov is the U.S. government's official web portal to all federal, state and local government web resources and services.